Time;durP1;ratioP1;P1;durP2;ratioP2;P2;SDS_P1;SDS_P2;PMS_P1;PMS_P2;Temp;Humidity;BMP_temperature;BMP_pressure;BME280_temperature;BME280_humidity;BME280_pressure;Samples;Min_cycle;Max_cycle;Signal;HPM_P1;HPM_P2
2022/03/02 00:01:52;;;;;;;;;49.50;38.75;;;;;11.76;44.27;101825.25;5060304;28;45434;-47
2022/03/02 00:04:17;;;;;;;;;53.00;41.50;;;;;11.75;44.20;101824.38;5060519;28;45351;-49
2022/03/02 00:06:43;;;;;;;;;50.50;41.75;;;;;11.75;44.33;101831.38;5060378;28;45585;-49
2022/03/02 00:09:08;;;;;;;;;48.75;38.00;;;;;11.73;44.33;101827.91;5059966;28;45320;-50
2022/03/02 00:11:34;;;;;;;;;55.25;41.00;;;;;11.70;44.35;101829.66;5059934;28;45383;-48
2022/03/02 00:14:00;;;;;;;;;49.50;41.00;;;;;11.71;44.32;101815.63;5060191;28;46250;-47
2022/03/02 00:16:28;;;;;;;;;46.25;36.75;;;;;11.69;44.35;101819.13;5060437;28;45185;-47
2022/03/02 00:18:54;;;;;;;;;48.50;40.50;;;;;11.67;44.31;101813.88;5060378;28;45286;-48
2022/03/02 00:21:20;;;;;;;;;47.00;38.50;;;;;11.67;44.25;101815.59;5060062;28;45332;-51
2022/03/02 00:23:45;;;;;;;;;33.00;27.25;;;;;11.66;44.36;101814.75;5060017;28;47089;-47
2022/03/02 00:26:11;;;;;;;;;48.00;39.25;;;;;11.64;44.55;101811.22;5059727;28;45327;-55
2022/03/02 00:28:36;;;;;;;;;46.25;36.75;;;;;11.63;44.35;101808.59;5075872;28;45344;-50
2022/03/02 00:31:02;;;;;;;;;50.50;39.00;;;;;11.61;44.29;101799.81;5059979;28;45322;-50
2022/03/02 00:33:27;;;;;;;;;50.25;39.00;;;;;11.61;44.42;101805.09;5059875;28;46450;-47
2022/03/02 00:35:52;;;;;;;;;47.50;40.00;;;;;11.55;44.40;101792.81;5070094;28;45308;-48
2022/03/02 00:38:18;;;;;;;;;53.75;42.00;;;;;11.55;44.44;101795.44;5060247;28;45304;-51
2022/03/02 00:40:43;;;;;;;;;53.75;42.00;;;;;11.54;44.33;101798.97;5059579;28;45431;-48
2022/03/02 00:43:10;;;;;;;;;48.00;38.25;;;;;11.52;44.35;101790.19;5059951;28;46015;-47
2022/03/02 00:45:36;;;;;;;;;44.00;36.75;;;;;11.47;44.19;101787.56;5060018;28;45239;-48
2022/03/02 00:48:03;;;;;;;;;48.00;38.25;;;;;11.45;44.36;101785.81;5060122;28;45330;-48
2022/03/02 00:50:29;;;;;;;;;44.75;38.75;;;;;11.46;44.24;101782.28;5059734;28;45553;-49
2022/03/02 00:52:55;;;;;;;;;47.25;39.75;;;;;11.43;44.25;101785.81;5058473;28;45954;-50
2022/03/02 00:55:21;;;;;;;;;47.50;37.75;;;;;11.38;44.25;101788.47;5059332;28;45393;-50
2022/03/02 00:57:47;;;;;;;;;45.75;38.75;;;;;11.38;44.29;101785.81;5060022;28;45401;-49
2022/03/02 01:00:13;;;;;;;;;47.50;37.25;;;;;11.37;44.42;101786.69;5058247;28;45707;-47
2022/03/02 01:02:39;;;;;;;;;56.75;43.00;;;;;11.33;44.42;101779.69;5061443;28;46095;-53
2022/03/02 01:05:06;;;;;;;;;55.00;42.50;;;;;11.33;44.44;101779.69;5063236;28;45244;-53
2022/03/02 01:07:32;;;;;;;;;49.50;37.75;;;;;11.32;44.36;101777.94;5063121;28;45295;-49
2022/03/02 01:09:59;;;;;;;;;51.00;42.50;;;;;11.27;44.32;101777.06;5062886;28;45247;-47
2022/03/02 01:12:24;;;;;;;;;52.25;43.75;;;;;11.27;44.48;101774.44;5062801;28;46264;-50
2022/03/02 01:14:50;;;;;;;;;50.75;41.25;;;;;11.26;44.40;101780.56;5063050;28;45228;-48
2022/03/02 01:17:17;;;;;;;;;52.50;43.75;;;;;11.25;44.65;101770.91;5063246;28;45372;-47
2022/03/02 01:19:43;;;;;;;;;54.75;42.50;;;;;11.24;44.51;101768.28;5062776;28;45466;-50
2022/03/02 01:22:08;;;;;;;;;59.25;45.50;;;;;11.20;44.64;101773.53;5062912;28;45314;-50
2022/03/02 01:24:34;;;;;;;;;53.50;44.00;;;;;11.19;44.59;101773.53;5062618;28;45351;-50
2022/03/02 01:27:01;;;;;;;;;51.00;41.25;;;;;11.19;44.57;101776.19;5062889;28;45355;-48
2022/03/02 01:29:28;;;;;;;;;57.00;44.50;;;;;11.18;44.64;101777.03;5061297;28;45485;-49
2022/03/02 01:31:54;;;;;;;;;57.50;45.00;;;;;11.14;44.52;101762.16;5062619;28;46380;-47
2022/03/02 01:34:19;;;;;;;;;50.00;42.75;;;;;11.16;44.66;101765.66;5062245;28;45236;-50
2022/03/02 01:36:45;;;;;;;;;52.00;42.75;;;;;11.13;44.57;101761.28;5073195;28;45801;-47
2022/03/02 01:39:11;;;;;;;;;51.75;41.75;;;;;11.13;44.51;101763.91;5062403;28;45343;-50
2022/03/02 01:41:37;;;;;;;;;52.75;42.75;;;;;11.11;44.70;101760.41;5061025;28;45860;-48
2022/03/02 01:44:02;;;;;;;;;52.00;41.25;;;;;11.10;44.89;101756.00;5062538;28;45347;-47
2022/03/02 01:46:30;;;;;;;;;57.00;44.75;;;;;11.09;44.63;101759.50;5062728;28;45313;-52
2022/03/02 01:48:55;;;;;;;;;54.25;41.75;;;;;11.06;44.59;101755.13;5061160;28;45485;-57
2022/03/02 01:51:20;;;;;;;;;54.75;44.00;;;;;11.06;44.65;101756.91;5060998;28;47200;-51
2022/03/02 01:53:46;;;;;;;;;53.25;43.00;;;;;11.04;44.67;101751.63;5061085;28;45279;-49
2022/03/02 01:56:12;;;;;;;;;54.25;42.75;;;;;11.02;44.82;101747.25;5060885;28;45360;-51
2022/03/02 01:58:38;;;;;;;;;53.50;43.50;;;;;10.99;44.65;101747.25;5060963;28;45261;-51
2022/03/02 02:01:04;;;;;;;;;53.00;41.25;;;;;10.99;44.86;101748.13;5062200;28;46361;-51
2022/03/02 02:03:30;;;;;;;;;51.00;42.50;;;;;10.99;44.86;101749.88;5062209;28;45346;-49
2022/03/02 02:05:56;;;;;;;;;53.25;42.00;;;;;10.99;44.82;101749.88;5062450;28;45317;-49
2022/03/02 02:08:22;;;;;;;;;55.75;44.25;;;;;10.96;44.81;101740.22;5060596;28;45549;-51
2022/03/02 02:10:48;;;;;;;;;53.00;44.25;;;;;10.99;44.77;101741.97;5061596;28;47196;-49
2022/03/02 02:13:13;;;;;;;;;53.50;41.75;;;;;10.96;44.80;101732.34;5062055;28;45420;-47
2022/03/02 02:15:39;;;;;;;;;51.25;41.50;;;;;10.96;44.88;101734.97;5062305;28;45371;-47
2022/03/02 02:18:04;;;;;;;;;54.75;42.25;;;;;10.95;44.83;101733.22;5061970;28;45315;-50
2022/03/02 02:20:38;;;;;;;;;47.50;40.50;;;;;10.94;44.85;101725.31;5061987;28;45333;-48
2022/03/02 02:23:04;;;;;;;;;50.00;41.00;;;;;10.94;45.23;101722.69;5060640;28;45407;-49
2022/03/02 02:25:29;;;;;;;;;53.00;40.25;;;;;10.93;44.83;101710.41;5060511;28;45315;-51
2022/03/02 02:27:55;;;;;;;;;52.75;42.25;;;;;10.94;44.92;101705.16;5061979;28;45227;-49
2022/03/02 02:30:21;;;;;;;;;51.75;38.75;;;;;10.93;45.08;101706.06;5060434;28;47761;-49
2022/03/02 02:32:46;;;;;;;;;52.75;41.25;;;;;10.91;45.21;101704.31;5060545;28;45231;-47
2022/03/02 02:35:12;;;;;;;;;54.00;42.25;;;;;10.89;45.13;101693.75;5070299;28;45398;-47
2022/03/02 02:37:38;;;;;;;;;54.00;43.00;;;;;10.91;45.22;101702.53;5063940;28;45442;-50
2022/03/02 02:40:10;;;;;;;;;50.75;40.25;;;;;10.90;45.14;101703.41;5061284;28;46037;-50
2022/03/02 02:42:36;;;;;;;;;49.50;41.00;;;;;10.91;44.92;101709.56;5060402;28;45721;-50
2022/03/02 02:45:03;;;;;;;;;53.00;43.00;;;;;10.88;45.14;101695.53;5061778;28;45248;-51
2022/03/02 02:47:29;;;;;;;;;55.75;44.00;;;;;10.91;45.04;101692.03;5060384;28;45253;-48
2022/03/02 02:49:54;;;;;;;;;52.75;41.25;;;;;10.89;45.06;101689.41;5043323;28;47780;-51
2022/03/02 02:52:20;;;;;;;;;50.75;38.75;;;;;10.89;45.21;101688.50;5061558;28;45473;-47
2022/03/02 02:54:47;;;;;;;;;55.00;43.25;;;;;10.88;45.35;101685.00;5061523;28;45520;-51
2022/03/02 02:57:13;;;;;;;;;50.00;41.50;;;;;10.85;45.19;101673.59;5061164;28;45351;-50
2022/03/02 02:59:39;;;;;;;;;55.75;42.00;;;;;10.86;45.13;101672.75;5061283;28;46478;-51
2022/03/02 03:02:04;;;;;;;;;58.25;43.25;;;;;10.85;45.40;101663.97;5061340;28;45306;-47
2022/03/02 03:04:30;;;;;;;;;52.75;44.25;;;;;10.85;45.27;101666.59;5061609;28;45699;-50
2022/03/02 03:06:55;;;;;;;;;54.50;42.25;;;;;10.85;45.28;101665.72;5060914;28;45367;-51
2022/03/02 03:09:20;;;;;;;;;52.75;44.25;;;;;10.84;45.21;101662.22;5059858;28;45482;-50
2022/03/02 03:11:47;;;;;;;;;56.25;42.75;;;;;10.83;45.34;101657.84;5060998;28;45238;-47
2022/03/02 03:14:14;;;;;;;;;54.25;41.75;;;;;10.84;45.20;101658.72;5061405;28;45216;-49
2022/03/02 03:16:41;;;;;;;;;58.25;44.00;;;;;10.83;45.16;101662.22;5061081;28;45249;-50
2022/03/02 03:19:06;;;;;;;;;53.25;43.50;;;;;10.82;45.28;101656.09;5061045;28;45473;-48
2022/03/02 03:21:32;;;;;;;;;54.75;41.00;;;;;10.82;45.35;101652.59;5059627;28;45275;-48
2022/03/02 03:23:58;;;;;;;;;53.50;41.50;;;;;10.80;45.32;101659.59;5061099;28;45382;-48
2022/03/02 03:26:24;;;;;;;;;53.25;43.50;;;;;10.79;45.26;101656.09;5060127;28;45423;-49
2022/03/02 03:28:50;;;;;;;;;61.50;47.50;;;;;10.78;45.30;101650.81;5059628;28;46109;-50
2022/03/02 03:31:15;;;;;;;;;52.25;41.75;;;;;10.76;45.33;101661.34;5060868;28;45216;-47
2022/03/02 03:33:40;;;;;;;;;53.25;44.50;;;;;10.73;45.41;101651.69;5060953;28;45440;-45
2022/03/02 03:36:06;;;;;;;;;54.50;44.00;;;;;10.72;45.22;101647.31;5071930;28;45442;-47
2022/03/02 03:38:31;;;;;;;;;53.25;43.75;;;;;10.71;45.31;101658.69;5060858;28;46201;-46
2022/03/02 03:40:57;;;;;;;;;52.25;42.50;;;;;10.70;45.48;101654.34;5059060;28;45400;-51
2022/03/02 03:43:22;;;;;;;;;59.75;44.75;;;;;10.68;45.36;101652.59;5061039;28;45414;-49
2022/03/02 03:45:49;;;;;;;;;50.75;40.00;;;;;10.66;45.54;101651.72;5060678;28;45484;-49
2022/03/02 03:48:15;;;;;;;;;53.75;42.25;;;;;10.65;45.54;101657.84;5059536;28;46106;-51
2022/03/02 03:50:40;;;;;;;;;53.00;43.25;;;;;10.63;45.63;101654.31;5060599;28;45484;-49
2022/03/02 03:53:06;;;;;;;;;51.50;41.50;;;;;10.62;45.52;101649.97;5060750;28;45306;-50
2022/03/02 03:55:31;;;;;;;;;55.50;43.00;;;;;10.60;45.38;101649.06;5059014;28;45401;-50
2022/03/02 03:57:57;;;;;;;;;55.50;42.00;;;;;10.57;45.40;101642.94;5060726;28;46189;-49
2022/03/02 04:00:22;;;;;;;;;52.50;41.75;;;;;10.55;45.36;101641.19;5060376;28;45365;-50
2022/03/02 04:02:48;;;;;;;;;61.50;48.75;;;;;10.53;45.57;101635.06;5060775;28;45364;-48
2022/03/02 04:05:14;;;;;;;;;58.25;44.75;;;;;10.55;45.46;101635.94;5060339;28;45525;-47
2022/03/02 04:07:40;;;;;;;;;55.00;41.25;;;;;10.53;45.36;101641.19;5060237;28;45407;-48
2022/03/02 04:10:07;;;;;;;;;55.50;42.25;;;;;10.52;45.49;101639.44;5059796;28;45264;-51
2022/03/02 04:12:32;;;;;;;;;56.50;44.00;;;;;10.49;45.78;101630.66;5060530;28;45417;-50
2022/03/02 04:14:58;;;;;;;;;56.75;43.00;;;;;10.51;45.47;101631.56;5058945;28;45209;-49
2022/03/02 04:17:23;;;;;;;;;51.25;41.50;;;;;10.50;45.49;101630.69;5060211;28;45499;-50
2022/03/02 04:19:49;;;;;;;;;53.75;41.75;;;;;10.50;45.54;101632.44;5060144;28;45224;-50
2022/03/02 04:22:15;;;;;;;;;54.75;43.25;;;;;10.50;45.74;101629.78;5060493;28;45308;-51
2022/03/02 04:24:40;;;;;;;;;56.75;45.50;;;;;10.48;45.76;101629.81;5059966;28;45431;-51
2022/03/02 04:27:07;;;;;;;;;50.25;41.25;;;;;10.50;45.76;101629.78;5059896;28;46209;-49
2022/03/02 04:29:32;;;;;;;;;52.75;42.50;;;;;10.50;45.70;101624.53;5059849;28;45354;-51
2022/03/02 04:31:58;;;;;;;;;54.25;44.00;;;;;10.50;45.53;101627.16;5060198;28;45304;-51
2022/03/02 04:34:23;;;;;;;;;60.25;48.50;;;;;10.51;45.65;101618.41;5061457;28;45347;-48
2022/03/02 04:36:48;;;;;;;;;54.00;44.00;;;;;10.51;45.72;101608.75;5068616;28;45393;-51
2022/03/02 04:39:14;;;;;;;;;51.25;43.25;;;;;10.51;45.69;101614.03;5059826;28;45343;-47
2022/03/02 04:41:39;;;;;;;;;56.75;42.50;;;;;10.51;45.67;101607.91;5059840;28;45437;-47
2022/03/02 04:44:05;;;;;;;;;54.75;44.00;;;;;10.49;45.89;101600.03;5059949;28;45395;-48
2022/03/02 04:46:30;;;;;;;;;53.25;43.00;;;;;10.49;45.59;101599.13;5059826;28;45381;-48
2022/03/02 04:48:56;;;;;;;;;52.50;41.75;;;;;10.49;45.88;101599.13;5059883;28;45311;-47
2022/03/02 04:51:21;;;;;;;;;54.00;44.00;;;;;10.49;45.69;101607.00;5059814;28;45610;-50
2022/03/02 04:53:50;;;;;;;;;53.75;43.00;;;;;10.49;45.79;101602.66;5058466;28;45201;-47
2022/03/02 04:56:15;;;;;;;;;55.50;43.00;;;;;10.49;45.66;101601.75;5059475;28;45466;-51
2022/03/02 04:58:40;;;;;;;;;55.25;41.50;;;;;10.49;45.80;101607.91;5059679;28;45346;-49
2022/03/02 05:01:06;;;;;;;;;55.00;42.75;;;;;10.49;45.69;101602.66;5059807;28;45261;-51
2022/03/02 05:03:31;;;;;;;;;53.25;42.00;;;;;10.49;45.77;101602.66;5059622;28;45323;-47
2022/03/02 05:05:56;;;;;;;;;53.00;42.25;;;;;10.49;45.68;101605.28;5059786;28;45376;-50
2022/03/02 05:08:22;;;;;;;;;53.00;42.25;;;;;10.50;45.85;101599.16;5059216;28;45327;-46
2022/03/02 05:10:47;;;;;;;;;56.50;45.50;;;;;10.49;45.73;101588.63;5059235;28;45375;-46
2022/03/02 05:13:13;;;;;;;;;59.50;44.50;;;;;10.49;45.94;101592.13;5059672;28;45308;-46
2022/03/02 05:15:39;;;;;;;;;53.50;42.25;;;;;10.49;46.00;101588.63;5059630;28;46180;-48
2022/03/02 05:18:04;;;;;;;;;52.50;41.75;;;;;10.49;45.86;101596.50;5059497;28;45326;-49
2022/03/02 05:20:30;;;;;;;;;48.50;40.25;;;;;10.48;45.82;101587.75;5059579;28;45384;-47
2022/03/02 05:22:55;;;;;;;;;55.50;42.00;;;;;10.48;45.83;101581.63;5059560;28;45224;-49
2022/03/02 05:25:21;;;;;;;;;49.75;41.25;;;;;10.47;45.75;101590.41;5058986;28;45332;-49
2022/03/02 05:27:47;;;;;;;;;51.75;42.75;;;;;10.47;45.99;101590.41;5059520;28;45423;-48
2022/03/02 05:30:13;;;;;;;;;54.00;43.00;;;;;10.46;45.85;101592.13;5058162;28;45462;-52
2022/03/02 05:32:40;;;;;;;;;52.50;41.25;;;;;10.46;45.84;101583.38;5059344;28;45228;-51
2022/03/02 05:35:06;;;;;;;;;49.25;39.50;;;;;10.45;45.75;101582.47;5066660;28;46547;-50
2022/03/02 05:37:34;;;;;;;;;52.50;43.00;;;;;10.44;46.02;101579.88;5061780;28;45337;-49
2022/03/02 05:39:59;;;;;;;;;56.50;42.50;;;;;10.43;45.91;101570.22;5057704;28;45365;-49
2022/03/02 05:42:25;;;;;;;;;55.50;42.75;;;;;10.35;46.02;101563.22;5059295;28;45238;-48
2022/03/02 05:44:50;;;;;;;;;56.25;42.50;;;;;10.43;45.75;101581.63;5059076;28;46167;-51
2022/03/02 05:47:15;;;;;;;;;54.00;42.50;;;;;10.42;45.89;101577.25;5059115;28;45269;-51
2022/03/02 05:49:41;;;;;;;;;48.50;41.75;;;;;10.40;45.90;101577.25;5062354;28;45493;-52
2022/03/02 05:52:06;;;;;;;;;56.00;43.25;;;;;10.39;46.04;101575.50;5062599;28;45153;-50
2022/03/02 05:54:32;;;;;;;;;49.00;41.75;;;;;10.39;45.87;101578.13;5062301;28;45320;-52
2022/03/02 05:56:57;;;;;;;;;53.25;43.00;;;;;10.35;45.85;101573.72;5046112;28;45486;-52
2022/03/02 05:59:22;;;;;;;;;53.00;42.00;;;;;10.37;46.01;101576.38;5057843;28;45384;-52
2022/03/02 06:01:49;;;;;;;;;57.25;43.00;;;;;10.35;45.89;101580.72;5062328;28;45219;-51
2022/03/02 06:04:14;;;;;;;;;50.50;42.75;;;;;10.34;46.30;101574.59;5057147;28;46926;-49
2022/03/02 06:06:40;;;;;;;;;53.00;42.00;;;;;10.34;46.05;101576.31;5062195;28;45413;-51
2022/03/02 06:09:08;;;;;;;;;52.25;42.00;;;;;10.33;45.97;101578.09;5061813;28;45462;-52
2022/03/02 06:11:36;;;;;;;;;57.00;43.00;;;;;10.32;45.91;101571.06;5061569;28;45354;-51
2022/03/02 06:14:03;;;;;;;;;50.25;41.00;;;;;10.32;46.16;101575.47;5057850;28;46977;-49
2022/03/02 06:16:29;;;;;;;;;50.75;41.00;;;;;10.30;45.79;101570.22;5062026;28;45298;-51
2022/03/02 06:18:56;;;;;;;;;48.00;39.00;;;;;10.29;46.06;101571.09;5062233;28;45284;-50
2022/03/02 06:21:27;;;;;;;;;51.50;43.50;;;;;10.32;46.10;101578.09;5061942;28;45485;-50
2022/03/02 06:23:53;;;;;;;;;50.25;40.25;;;;;10.30;45.97;101564.97;5061652;28;45353;-49
2022/03/02 06:26:19;;;;;;;;;43.75;37.25;;;;;10.30;46.11;101569.31;5061404;28;45200;-50
2022/03/02 06:28:45;;;;;;;;;48.00;40.25;;;;;10.32;45.83;101567.59;5094548;27;45452;-50
2022/03/02 06:31:13;;;;;;;;;46.75;39.50;;;;;10.31;45.94;101571.94;5058928;28;45336;-46
2022/03/02 06:33:38;;;;;;;;;53.00;43.00;;;;;10.31;45.99;101568.44;5061641;28;46218;-48
2022/03/02 06:36:04;;;;;;;;;49.75;41.00;;;;;10.32;45.98;101573.69;5063753;28;45391;-52
2022/03/02 06:38:30;;;;;;;;;48.75;39.25;;;;;10.31;45.86;101564.06;5053115;28;45453;-51
2022/03/02 06:41:01;;;;;;;;;52.25;40.75;;;;;10.31;45.97;101571.94;5061015;28;45158;-52
2022/03/02 06:43:33;;;;;;;;;45.00;36.50;;;;;10.31;45.98;101573.72;5061527;28;46311;-52
2022/03/02 06:46:02;;;;;;;;;46.25;39.00;;;;;10.31;45.61;101576.34;5061215;28;45520;-47
2022/03/02 06:48:33;;;;;;;;;37.50;33.00;;;;;10.30;45.75;101569.31;5061775;28;45349;-51
2022/03/02 06:51:01;;;;;;;;;51.75;40.75;;;;;10.28;45.79;101573.72;5060076;28;45560;-49
2022/03/02 06:53:35;;;;;;;;;46.25;38.00;;;;;10.28;45.79;101577.22;5060013;28;47118;-48
2022/03/02 06:56:06;;;;;;;;;52.75;42.00;;;;;10.29;45.86;101581.59;5059653;28;45406;-48
2022/03/02 06:58:40;;;;;;;;;49.50;39.25;;;;;10.28;45.96;101579.84;5061349;28;45212;-50
2022/03/02 07:01:09;;;;;;;;;45.75;38.00;;;;;10.29;45.78;101576.34;5059328;28;45478;-51
2022/03/02 07:03:40;;;;;;;;;50.50;40.25;;;;;10.25;45.97;101578.09;5059105;28;45291;-48
2022/03/02 07:06:05;;;;;;;;;49.00;39.25;;;;;10.28;45.86;101578.97;5061252;28;45250;-49
2022/03/02 07:08:33;;;;;;;;;44.25;36.50;;;;;10.29;45.90;101589.47;5061010;28;45630;-46
2022/03/02 07:10:59;;;;;;;;;52.75;41.25;;;;;10.28;45.91;101590.34;5060536;28;45489;-49
2022/03/02 07:13:27;;;;;;;;;52.75;40.25;;;;;10.27;46.04;101588.59;5059847;28;46612;-48
2022/03/02 07:15:53;;;;;;;;;47.00;37.50;;;;;10.28;45.69;101585.09;5059777;28;45592;-50
2022/03/02 07:18:18;;;;;;;;;44.25;38.00;;;;;10.28;45.78;101592.13;5061162;28;45285;-47
2022/03/02 07:20:46;;;;;;;;;44.50;37.50;;;;;10.27;45.94;101588.59;5059641;28;45485;-47
2022/03/02 07:23:15;;;;;;;;;50.00;38.00;;;;;10.27;45.87;101599.09;5060803;28;46258;-46
2022/03/02 07:25:42;;;;;;;;;49.50;37.75;;;;;10.28;45.95;101597.38;5060273;28;45423;-48
2022/03/02 07:28:12;;;;;;;;;47.25;36.50;;;;;10.28;45.90;101590.34;5048768;28;45308;-50
2022/03/02 07:30:39;;;;;;;;;52.00;39.75;;;;;10.28;45.94;101590.34;5060663;28;45438;-51
2022/03/02 07:33:05;;;;;;;;;49.00;40.25;;;;;10.29;45.89;101593.84;5060997;28;47244;-49
2022/03/02 07:35:35;;;;;;;;;52.00;41.00;;;;;10.30;45.81;101592.97;5060376;28;45406;-48
2022/03/02 07:38:01;;;;;;;;;47.75;38.75;;;;;10.30;45.62;101588.59;5061098;28;45312;-47
2022/03/02 07:40:26;;;;;;;;;51.50;40.50;;;;;10.30;45.81;101596.50;5060675;28;45607;-48
2022/03/02 07:42:52;;;;;;;;;50.75;39.25;;;;;10.32;45.72;101594.72;5060736;28;45345;-47
2022/03/02 07:45:18;;;;;;;;;48.50;36.50;;;;;10.33;45.69;101590.34;5059588;28;45193;-45
2022/03/02 07:47:43;;;;;;;;;44.75;36.00;;;;;10.35;45.62;101594.75;5060935;28;45304;-46
2022/03/02 07:50:10;;;;;;;;;45.75;37.25;;;;;10.35;45.54;101591.22;5060855;28;45244;-48
2022/03/02 07:52:38;;;;;;;;;47.25;37.50;;;;;10.35;45.65;101580.72;5060472;28;46445;-46
2022/03/02 07:55:09;;;;;;;;;49.25;38.75;;;;;10.38;45.62;101586.00;5059146;28;45450;-48
2022/03/02 07:57:37;;;;;;;;;42.25;35.50;;;;;10.37;45.56;101574.59;5060793;28;45303;-47
2022/03/02 08:00:04;;;;;;;;;48.00;36.25;;;;;10.39;45.57;101577.25;5059133;28;45932;-47
2022/03/02 08:02:31;;;;;;;;;45.50;36.75;;;;;10.40;45.77;101579.88;5060553;28;46506;-48
2022/03/02 08:04:57;;;;;;;;;52.50;38.75;;;;;10.42;45.60;101581.63;5059097;28;45736;-46
2022/03/02 08:07:22;;;;;;;;;44.25;37.00;;;;;10.43;45.74;101572.84;5060669;28;45399;-50
2022/03/02 08:09:51;;;;;;;;;44.75;36.75;;;;;10.44;45.85;101574.59;5058524;28;45536;-46
2022/03/02 08:12:20;;;;;;;;;41.75;35.75;;;;;10.44;45.59;101572.88;5060361;28;45328;-45
2022/03/02 08:14:45;;;;;;;;;44.25;38.00;;;;;10.45;45.71;101574.59;5059141;28;45515;-45
2022/03/02 08:17:10;;;;;;;;;38.50;35.00;;;;;10.49;45.61;101571.13;5060643;28;45291;-45
2022/03/02 08:19:36;;;;;;;;;49.00;39.50;;;;;10.51;45.71;101577.22;5058649;28;45253;-49
2022/03/02 08:22:09;;;;;;;;;46.50;36.25;;;;;10.55;45.77;101578.09;5058828;28;45995;-45
2022/03/02 08:24:41;;;;;;;;;40.50;35.00;;;;;10.58;45.78;101575.50;5059960;28;45327;-47
2022/03/02 08:27:11;;;;;;;;;44.50;36.25;;;;;10.61;45.48;101577.25;5060056;28;45310;-48
2022/03/02 08:29:37;;;;;;;;;45.00;35.50;;;;;10.64;45.65;101575.50;5059842;28;45622;-45
2022/03/02 08:32:04;;;;;;;;;44.50;37.50;;;;;10.65;45.53;101571.09;5059944;28;47006;-45
2022/03/02 08:34:32;;;;;;;;;45.25;37.50;;;;;10.69;45.53;101571.09;5062276;28;45242;-48
2022/03/02 08:36:59;;;;;;;;;43.25;36.50;;;;;10.72;45.74;101578.97;5068656;28;45269;-47
2022/03/02 08:39:26;;;;;;;;;47.75;38.50;;;;;10.76;45.73;101589.50;5059729;28;45485;-47
2022/03/02 08:41:53;;;;;;;;;48.00;37.25;;;;;10.80;45.72;101584.22;5059828;28;45916;-48
2022/03/02 08:44:19;;;;;;;;;50.25;38.75;;;;;10.83;45.61;101588.59;5059786;28;45230;-46
2022/03/02 08:46:47;;;;;;;;;50.00;40.75;;;;;10.86;45.54;101591.22;5059983;28;45288;-49
2022/03/02 08:49:14;;;;;;;;;47.00;37.75;;;;;10.90;45.67;101590.34;5059938;28;45391;-45
2022/03/02 08:51:41;;;;;;;;;47.75;39.00;;;;;10.95;45.56;101591.19;5058700;28;45333;-46
2022/03/02 08:54:07;;;;;;;;;48.00;39.50;;;;;11.00;45.69;101585.94;5059581;28;45257;-45
2022/03/02 08:56:36;;;;;;;;;42.75;35.00;;;;;11.02;45.42;101581.56;5059645;28;45292;-46
2022/03/02 08:59:01;;;;;;;;;38.75;34.25;;;;;11.08;45.68;101585.91;5059602;28;45650;-46
2022/03/02 09:01:29;;;;;;;;;44.25;38.75;;;;;11.13;45.62;101587.66;5059697;28;45308;-45
2022/03/02 09:03:58;;;;;;;;;46.25;38.75;;;;;11.17;45.46;101589.41;5058326;28;45632;-46
2022/03/02 09:06:25;;;;;;;;;50.50;40.75;;;;;11.24;45.57;101589.38;5058484;28;45429;-45
2022/03/02 09:08:51;;;;;;;;;43.00;35.75;;;;;11.27;45.51;101587.63;5059157;28;45426;-45
2022/03/02 09:11:17;;;;;;;;;46.50;36.75;;;;;11.33;45.58;101590.22;5059223;28;45299;-49
2022/03/02 09:13:42;;;;;;;;;50.25;38.50;;;;;11.38;45.56;101582.28;5059403;28;45334;-46
2022/03/02 09:16:10;;;;;;;;;47.25;37.75;;;;;11.41;45.62;101577.03;5059757;28;45430;-45
2022/03/02 09:18:36;;;;;;;;;42.50;36.75;;;;;11.48;45.48;101583.13;5059521;28;45454;-44
2022/03/02 09:21:04;;;;;;;;;48.50;37.50;;;;;11.53;45.53;101576.09;5059443;28;45304;-45
2022/03/02 09:23:34;;;;;;;;;42.00;35.25;;;;;11.59;45.70;101575.19;5060914;28;45665;-48
2022/03/02 09:26:06;;;;;;;;;41.50;35.75;;;;;11.63;45.58;101569.03;5062820;28;45449;-45
2022/03/02 09:28:37;;;;;;;;;46.25;37.00;;;;;11.68;45.66;101569.88;5061669;28;45407;-45
2022/03/02 09:31:04;;;;;;;;;47.75;40.25;;;;;11.74;45.38;101566.34;5062799;28;45312;-46
2022/03/02 09:33:31;;;;;;;;;41.00;35.50;;;;;11.76;45.58;101560.19;5062756;27;45150;-45
2022/03/02 09:35:57;;;;;;;;;44.75;37.00;;;;;11.83;45.39;101563.63;5063873;28;45482;-50
2022/03/02 09:38:24;;;;;;;;;42.25;35.00;;;;;11.87;45.50;101555.72;5062808;28;45394;-45
2022/03/02 09:40:51;;;;;;;;;49.00;37.50;;;;;11.91;45.39;101556.59;5061047;28;47135;-46
2022/03/02 09:43:19;;;;;;;;;40.25;34.50;;;;;11.95;45.45;101550.41;5062718;28;45284;-46
2022/03/02 09:45:50;;;;;;;;;42.75;34.25;;;;;11.99;45.26;101554.78;5062791;28;45311;-46
2022/03/02 09:48:29;;;;;;;;;45.00;35.00;;;;;12.03;45.28;101551.22;5062749;28;45230;-46
2022/03/02 09:50:59;;;;;;;;;46.25;36.25;;;;;12.08;45.38;101550.34;5062476;28;45499;-47
2022/03/02 09:53:28;;;;;;;;;40.00;34.25;;;;;12.10;45.53;101548.56;5062569;28;45319;-45
2022/03/02 09:55:56;;;;;;;;;47.50;38.00;;;;;12.15;45.39;101552.03;5062298;28;45287;-47
2022/03/02 09:58:24;;;;;;;;;42.25;36.75;;;;;12.19;45.14;101551.13;5062574;28;45464;-46
2022/03/02 10:00:54;;;;;;;;;53.00;42.75;;;;;12.23;45.21;101555.47;5060979;28;47371;-45
2022/03/02 10:03:20;;;;;;;;;47.50;38.25;;;;;12.27;45.36;101554.56;5062557;28;45240;-49
2022/03/02 10:05:48;;;;;;;;;42.75;36.50;;;;;12.33;45.25;101553.66;5062338;28;45460;-47
2022/03/02 10:08:18;;;;;;;;;46.75;36.00;;;;;12.38;45.29;101553.59;5062076;28;45276;-46
2022/03/02 10:10:47;;;;;;;;;47.25;36.50;;;;;12.44;45.16;101553.53;5061690;28;46022;-47
2022/03/02 10:13:15;;;;;;;;;50.25;38.50;;;;;12.48;45.25;101550.00;5062238;28;45364;-47
2022/03/02 10:15:41;;;;;;;;;49.50;37.00;;;;;12.53;45.13;101548.19;5062426;28;45394;-46
2022/03/02 10:18:10;;;;;;;;;48.50;38.00;;;;;12.61;45.11;101545.50;5062246;28;45560;-48
2022/03/02 10:20:38;;;;;;;;;44.00;35.75;;;;;12.68;45.31;101544.53;5060742;28;47194;-46
2022/03/02 10:23:32;;;;;;;;;45.25;37.25;;;;;12.76;45.25;101542.69;5061982;28;45309;-46
2022/03/02 10:25:57;;;;;;;;;48.25;38.25;;;;;12.83;45.09;101547.00;5060553;28;45355;-46
2022/03/02 10:28:28;;;;;;;;;38.25;32.50;;;;;12.90;44.94;101537.25;5060680;28;45494;-44
2022/03/02 10:31:26;;;;;;;;;45.00;36.50;;;;;13.00;45.02;101541.56;5060471;28;46248;-45
2022/03/02 10:33:55;;;;;;;;;46.50;37.75;;;;;13.09;45.12;101524.72;5061373;28;45274;-44
2022/03/02 10:36:26;;;;;;;;;46.00;37.00;;;;;13.17;45.09;101529.94;5061537;28;45315;-47
2022/03/02 10:38:58;;;;;;;;;47.00;37.75;;;;;13.30;45.32;101528.00;5061668;28;45260;-47
2022/03/02 10:41:25;;;;;;;;;40.00;34.00;;;;;13.40;45.40;101524.38;5061476;28;46293;-44
2022/03/02 10:44:01;;;;;;;;;47.75;39.00;;;;;13.51;45.07;101520.69;5061976;28;45379;-46
2022/03/02 10:46:28;;;;;;;;;41.00;35.25;;;;;13.62;45.40;101521.41;5061858;28;45336;-46
2022/03/02 10:49:19;;;;;;;;;49.50;36.50;;;;;13.73;45.22;101516.00;5060512;28;45467;-44
2022/03/02 10:51:45;;;;;;;;;42.25;35.25;;;;;13.84;45.39;101514.06;5061652;28;45439;-46
2022/03/02 10:54:16;;;;;;;;;45.50;36.75;;;;;13.95;45.27;101512.13;5061537;28;45474;-45
2022/03/02 10:56:43;;;;;;;;;48.50;36.25;;;;;14.06;44.80;101505.78;5061578;28;45272;-45
2022/03/02 10:59:16;;;;;;;;;61.25;49.50;;;;;14.19;45.46;101503.81;5061465;28;45402;-47
2022/03/02 11:01:42;;;;;;;;;44.50;36.50;;;;;14.29;45.26;101490.41;5061379;28;46289;-45
2022/03/02 11:04:08;;;;;;;;;46.00;37.75;;;;;14.44;44.75;101498.97;5061366;28;45546;-50
2022/03/02 11:06:35;;;;;;;;;52.50;39.50;;;;;14.54;44.87;101494.38;5061578;28;45153;-48
2022/03/02 11:09:03;;;;;;;;;48.75;39.00;;;;;14.65;44.69;101492.41;5061037;28;45579;-47